Time;durP1;ratioP1;P1;durP2;ratioP2;P2;SDS_P1;SDS_P2;PMS_P1;PMS_P2;Temp;Humidity;BMP_temperature;BMP_pressure;BME280_temperature;BME280_humidity;BME280_pressure;Samples;Min_cycle;Max_cycle;Signal;HPM_P1;HPM_P2
2023/09/27 00:00:39;;;;;;;3.97;2.75;;;23.70;59.60;;;;;;6106172;23;91434;-85
2023/09/27 00:03:05;;;;;;;2.72;2.38;;;23.70;59.50;;;;;;6131356;23;87788;-88
2023/09/27 00:05:31;;;;;;;2.92;2.25;;;23.70;59.70;;;;;;6133764;23;86339;-85
2023/09/27 00:07:57;;;;;;;3.55;2.65;;;23.70;59.80;;;;;;6133651;23;85760;-86
2023/09/27 00:10:22;;;;;;;3.05;2.05;;;23.70;59.70;;;;;;6133436;23;86567;-84
2023/09/27 00:12:48;;;;;;;4.07;2.35;;;23.60;59.60;;;;;;6134526;23;87378;-85
2023/09/27 00:15:14;;;;;;;3.78;2.42;;;23.60;59.70;;;;;;6134021;23;85717;-86
2023/09/27 00:17:42;;;;;;;3.53;2.30;;;23.60;59.70;;;;;;6134629;23;85800;-84
2023/09/27 00:20:11;;;;;;;3.33;2.45;;;23.60;59.50;;;;;;6133702;23;87265;-86
2023/09/27 00:22:37;;;;;;;;;;;23.60;59.50;;;;;;6132064;23;87229;-90
2023/09/27 00:25:08;;;;;;;2.97;2.50;;;23.60;59.40;;;;;;6136875;23;85451;-84
2023/09/27 00:27:35;;;;;;;2.58;2.33;;;23.60;59.50;;;;;;6132872;23;86255;-88
2023/09/27 00:30:03;;;;;;;3.08;2.30;;;23.60;59.60;;;;;;6095290;23;88492;-84
2023/09/27 00:32:28;;;;;;;3.15;2.25;;;23.60;59.70;;;;;;6133793;23;86002;-83
2023/09/27 00:34:54;;;;;;;2.97;2.35;;;23.60;59.60;;;;;;6133510;23;85496;-86
2023/09/27 00:37:24;;;;;;;3.30;2.40;;;23.60;59.60;;;;;;6133977;23;85935;-85
2023/09/27 00:39:49;;;;;;;3.85;2.80;;;23.50;59.50;;;;;;6135219;23;86297;-84
2023/09/27 00:42:15;;;;;;;3.63;2.63;;;23.60;59.60;;;;;;6133293;23;86460;-87
2023/09/27 00:44:41;;;;;;;2.63;2.30;;;23.50;59.50;;;;;;6106206;23;86152;-86
2023/09/27 00:47:13;;;;;;;3.17;2.58;;;23.50;59.50;;;;;;6106874;23;85922;-88
2023/09/27 00:49:39;;;;;;;2.90;2.30;;;23.50;59.60;;;;;;6130200;23;88746;-84
2023/09/27 00:52:06;;;;;;;3.30;2.42;;;23.50;59.60;;;;;;6130653;23;86847;-85
2023/09/27 00:54:34;;;;;;;2.75;2.08;;;23.50;59.60;;;;;;6104095;23;85806;-84
2023/09/27 00:57:01;;;;;;;3.35;2.28;;;23.50;59.50;;;;;;6131371;23;85686;-85
2023/09/27 00:59:29;;;;;;;4.53;2.40;;;23.50;59.60;;;;;;6104824;23;86361;-84
2023/09/27 01:01:55;;;;;;;6.57;2.50;;;23.50;59.80;;;;;;6105272;23;88392;-87
2023/09/27 01:04:22;;;;;;;2.22;2.03;;;23.50;59.80;;;;;;6130519;23;86106;-85
2023/09/27 01:06:48;;;;;;;4.07;2.78;;;23.40;59.70;;;;;;6133105;23;86099;-84
2023/09/27 01:09:14;;;;;;;3.40;2.47;;;23.40;59.80;;;;;;6106767;23;88330;-84
2023/09/27 01:11:39;;;;;;;2.92;2.47;;;23.40;59.50;;;;;;6106696;23;89608;-84
2023/09/27 01:14:06;;;;;;;3.40;2.42;;;23.40;59.80;;;;;;6119111;23;85916;-84
2023/09/27 01:16:35;;;;;;;3.55;2.50;;;23.40;59.70;;;;;;6133863;23;85419;-87
2023/09/27 01:19:02;;;;;;;3.45;2.00;;;23.40;59.70;;;;;;6107254;23;86397;-84
2023/09/27 01:21:27;;;;;;;2.38;2.17;;;23.40;59.70;;;;;;6134701;23;87340;-83
2023/09/27 01:23:53;;;;;;;4.40;2.63;;;23.40;59.80;;;;;;6133341;23;86097;-85
2023/09/27 01:26:21;;;;;;;2.75;2.30;;;23.40;59.80;;;;;;6107425;23;85492;-85
2023/09/27 01:28:47;;;;;;;3.75;2.50;;;23.40;59.60;;;;;;6132633;23;85665;-85
2023/09/27 01:31:13;;;;;;;2.95;2.50;;;23.40;59.60;;;;;;6107021;23;88451;-84
2023/09/27 01:33:39;;;;;;;3.25;2.20;;;23.40;59.70;;;;;;6107218;23;86233;-85
2023/09/27 01:36:15;;;;;;;2.42;2.22;;;23.40;59.80;;;;;;6133539;23;85649;-85
2023/09/27 01:38:40;;;;;;;3.28;2.17;;;23.40;59.80;;;;;;6132130;23;87744;-84
2023/09/27 01:41:06;;;;;;;5.82;2.72;;;23.40;59.70;;;;;;6133043;23;86037;-88
2023/09/27 01:43:32;;;;;;;2.53;1.90;;;23.40;59.80;;;;;;6106038;23;86963;-86
2023/09/27 01:45:58;;;;;;;2.97;2.15;;;23.40;59.80;;;;;;6107002;23;85941;-83
2023/09/27 01:48:24;;;;;;;3.53;2.20;;;23.30;59.70;;;;;;6104934;23;89523;-88
2023/09/27 01:50:49;;;;;;;2.83;2.25;;;23.30;59.70;;;;;;6131726;23;88204;-84
2023/09/27 01:53:16;;;;;;;2.45;1.95;;;23.40;59.90;;;;;;6132532;23;85667;-87
2023/09/27 01:55:43;;;;;;;2.65;2.13;;;23.30;59.70;;;;;;6105973;23;85840;-83
2023/09/27 01:58:10;;;;;;;2.88;2.17;;;23.30;59.80;;;;;;6132757;23;87251;-85
2023/09/27 02:00:36;;;;;;;3.85;2.30;;;23.30;59.70;;;;;;6132682;23;86863;-87
2023/09/27 02:03:04;;;;;;;3.83;2.47;;;23.30;59.80;;;;;;6106814;23;86044;-84
2023/09/27 02:05:30;;;;;;;2.65;2.00;;;23.30;59.70;;;;;;6106944;23;86144;-84
2023/09/27 02:07:56;;;;;;;5.88;2.10;;;23.30;59.80;;;;;;6108457;23;88618;-84
2023/09/27 02:10:23;;;;;;;3.58;2.22;;;23.30;59.70;;;;;;6134749;23;86700;-86
2023/09/27 02:12:49;;;;;;;2.55;2.10;;;23.30;59.80;;;;;;6108277;23;86205;-84
2023/09/27 02:15:15;;;;;;;3.47;2.53;;;23.30;59.90;;;;;;6107338;23;85564;-85
2023/09/27 02:17:42;;;;;;;2.83;2.38;;;23.30;59.70;;;;;;6106757;23;88526;-85
2023/09/27 02:20:13;;;;;;;3.67;2.28;;;23.20;59.70;;;;;;6132519;23;85855;-85
2023/09/27 02:22:40;;;;;;;4.50;2.70;;;23.20;60.40;;;;;;6136481;23;86288;-86
2023/09/27 02:25:09;;;;;;;3.53;2.20;;;23.30;59.60;;;;;;6134433;23;86204;-84
2023/09/27 02:27:36;;;;;;;2.75;2.28;;;23.20;59.60;;;;;;6107935;23;87422;-86
2023/09/27 02:30:03;;;;;;;3.35;2.38;;;23.30;59.70;;;;;;6132932;23;86066;-87
2023/09/27 02:32:29;;;;;;;2.45;2.10;;;23.20;59.60;;;;;;6108113;23;85766;-85
2023/09/27 02:34:55;;;;;;;2.88;2.00;;;23.20;59.60;;;;;;6132141;23;85828;-84
2023/09/27 02:37:21;;;;;;;2.72;1.98;;;23.20;59.60;;;;;;6106128;23;88476;-84
2023/09/27 02:39:47;;;;;;;3.38;2.10;;;23.20;59.70;;;;;;6134601;23;86208;-84
2023/09/27 02:42:20;;;;;;;2.42;1.98;;;23.20;59.60;;;;;;6130198;23;86255;-85
2023/09/27 02:44:47;;;;;;;3.03;2.22;;;23.20;59.60;;;;;;6132518;23;85698;-85
2023/09/27 02:47:13;;;;;;;3.55;2.05;;;23.20;59.50;;;;;;6134209;23;85690;-89
2023/09/27 02:49:41;;;;;;;3.17;2.30;;;23.20;59.40;;;;;;6134104;23;86956;-86
2023/09/27 02:52:24;;;;;;;2.03;1.50;;;23.20;59.60;;;;;;6133524;23;85668;-84
2023/09/27 02:54:53;;;;;;;2.28;1.95;;;23.20;59.50;;;;;;6126870;23;86292;-87
2023/09/27 02:57:19;;;;;;;2.38;1.88;;;23.20;59.50;;;;;;6133480;23;87584;-85
2023/09/27 02:59:51;;;;;;;3.53;2.20;;;23.20;59.50;;;;;;6133025;23;86361;-84
2023/09/27 03:02:17;;;;;;;2.38;2.03;;;23.20;59.40;;;;;;6134812;23;88215;-83
2023/09/27 03:04:48;;;;;;;2.30;1.80;;;23.20;59.40;;;;;;6133720;23;85984;-85
2023/09/27 03:07:15;;;;;;;3.03;2.33;;;23.20;59.40;;;;;;6134170;23;88088;-84
2023/09/27 03:09:41;;;;;;;3.20;2.55;;;23.20;59.60;;;;;;6134769;23;86390;-85
2023/09/27 03:12:06;;;;;;;4.60;2.15;;;23.20;59.40;;;;;;6133664;23;85901;-86
2023/09/27 03:14:32;;;;;;;2.78;2.08;;;23.20;59.60;;;;;;6132051;23;85840;-84
2023/09/27 03:16:59;;;;;;;2.67;2.15;;;23.20;59.50;;;;;;6134480;23;86204;-86
2023/09/27 03:19:30;;;;;;;2.92;1.90;;;23.10;59.40;;;;;;6132713;23;86042;-85
2023/09/27 03:21:56;;;;;;;2.13;1.90;;;23.20;59.60;;;;;;6136325;23;86051;-86
2023/09/27 03:24:22;;;;;;;3.10;2.35;;;23.20;59.70;;;;;;6134737;23;85921;-84
2023/09/27 03:26:48;;;;;;;2.10;1.90;;;23.10;59.60;;;;;;6133895;23;87356;-84
2023/09/27 03:29:13;;;;;;;2.50;1.83;;;23.10;59.50;;;;;;6132415;23;89409;-84
2023/09/27 03:31:39;;;;;;;3.38;2.20;;;23.10;59.50;;;;;;6134036;23;85561;-87
2023/09/27 03:34:05;;;;;;;1.98;1.75;;;23.10;59.40;;;;;;6133262;23;85936;-84
2023/09/27 03:36:30;;;;;;;3.03;2.22;;;23.10;59.50;;;;;;6106581;23;88560;-86
2023/09/27 03:38:56;;;;;;;2.25;1.98;;;23.10;59.50;;;;;;6134054;23;86059;-83
2023/09/27 03:41:22;;;;;;;3.13;1.90;;;23.10;59.50;;;;;;6134013;23;85610;-86
2023/09/27 03:43:50;;;;;;;3.05;2.20;;;23.10;59.50;;;;;;6134480;23;86132;-87
2023/09/27 03:46:15;;;;;;;3.25;1.95;;;23.10;59.50;;;;;;6133923;23;86320;-85
2023/09/27 03:48:41;;;;;;;2.83;2.17;;;23.10;59.40;;;;;;6107875;23;87091;-84
2023/09/27 03:51:09;;;;;;;2.10;1.90;;;23.10;59.50;;;;;;6105980;23;93063;-85
2023/09/27 03:53:45;;;;;;;3.38;2.45;;;23.10;59.50;;;;;;6131489;23;95470;-87
2023/09/27 03:56:10;;;;;;;3.33;2.08;;;23.10;59.50;;;;;;6130993;23;88892;-85
2023/09/27 03:58:36;;;;;;;1.85;1.60;;;23.10;59.50;;;;;;6130082;23;88114;-85
2023/09/27 04:01:02;;;;;;;2.20;2.00;;;23.10;59.60;;;;;;6131357;23;86374;-86
2023/09/27 04:03:28;;;;;;;2.17;1.98;;;23.10;59.50;;;;;;6133031;23;85585;-84
2023/09/27 04:05:53;;;;;;;1.95;1.70;;;23.00;59.40;;;;;;6133834;23;87188;-85
2023/09/27 04:08:19;;;;;;;2.28;1.80;;;23.00;59.30;;;;;;6133539;23;86848;-85
2023/09/27 04:10:47;;;;;;;2.95;2.25;;;23.00;59.40;;;;;;6121645;23;85679;-86
2023/09/27 04:13:12;;;;;;;2.80;2.25;;;23.00;59.30;;;;;;6132162;23;86348;-88
2023/09/27 04:15:41;;;;;;;1.92;1.60;;;23.00;59.30;;;;;;6133964;23;92118;-84
2023/09/27 04:18:06;;;;;;;3.47;2.03;;;23.00;59.30;;;;;;6106590;23;87750;-85
2023/09/27 04:20:32;;;;;;;2.65;1.95;;;23.00;59.40;;;;;;6134770;23;85479;-87
2023/09/27 04:22:58;;;;;;;2.90;2.08;;;23.00;59.50;;;;;;6133370;23;86068;-86
2023/09/27 04:25:24;;;;;;;2.67;1.90;;;23.00;59.30;;;;;;6131446;23;86687;-88
2023/09/27 04:27:49;;;;;;;3.63;2.20;;;23.00;59.40;;;;;;6107702;23;91354;-86
2023/09/27 04:30:18;;;;;;;2.42;1.88;;;23.00;59.40;;;;;;6133522;23;86021;-86
2023/09/27 04:32:46;;;;;;;1.90;1.80;;;23.00;59.40;;;;;;6107442;23;86204;-86
2023/09/27 04:35:26;;;;;;;3.50;2.42;;;23.00;59.30;;;;;;6133250;23;86251;-85
2023/09/27 04:37:51;;;;;;;1.90;1.65;;;23.00;59.50;;;;;;6133361;23;87454;-85
2023/09/27 04:40:17;;;;;;;2.72;1.90;;;23.00;59.50;;;;;;6131049;23;85532;-87
2023/09/27 04:42:44;;;;;;;2.03;1.52;;;23.00;59.40;;;;;;6108567;23;86038;-85
2023/09/27 04:45:11;;;;;;;2.15;1.75;;;23.00;59.30;;;;;;6132931;23;86102;-84
2023/09/27 04:47:38;;;;;;;2.10;1.70;;;23.00;59.30;;;;;;6131524;23;86034;-84
2023/09/27 04:50:09;;;;;;;3.05;1.77;;;23.00;59.30;;;;;;6133861;23;85812;-83
2023/09/27 04:52:35;;;;;;;2.20;1.95;;;23.00;59.50;;;;;;6106224;23;85952;-84
2023/09/27 04:55:01;;;;;;;2.53;1.75;;;23.00;59.50;;;;;;6134766;23;86475;-88
2023/09/27 04:57:27;;;;;;;2.65;1.80;;;23.00;59.40;;;;;;6130746;23;88704;-89
2023/09/27 04:59:53;;;;;;;2.50;1.70;;;23.00;59.40;;;;;;6133325;23;85529;-86
2023/09/27 05:02:20;;;;;;;2.92;2.30;;;23.00;59.40;;;;;;6133860;23;86161;-84
2023/09/27 05:04:47;;;;;;;2.50;2.15;;;23.00;59.40;;;;;;6130659;23;90735;-87
2023/09/27 05:07:16;;;;;;;3.22;2.25;;;23.00;59.20;;;;;;6106404;23;88027;-85
2023/09/27 05:09:42;;;;;;;;;;;23.00;59.30;;;;;;6108490;23;85865;-85
2023/09/27 05:12:08;;;;;;;2.30;2.08;;;22.90;59.20;;;;;;6133610;23;86051;-86
2023/09/27 05:14:33;;;;;;;1.85;1.65;;;23.00;59.30;;;;;;6105149;23;88254;-84
2023/09/27 05:16:59;;;;;;;2.67;1.92;;;23.00;59.50;;;;;;6132896;23;87788;-85
2023/09/27 05:19:27;;;;;;;2.17;1.83;;;23.00;59.40;;;;;;6133920;23;85435;-86
2023/09/27 05:21:53;;;;;;;3.13;2.15;;;23.00;59.40;;;;;;6134189;23;86392;-84
2023/09/27 05:24:20;;;;;;;1.95;1.70;;;23.00;59.40;;;;;;6134269;23;87154;-84
2023/09/27 05:26:46;;;;;;;2.60;2.03;;;22.90;59.40;;;;;;6131974;23;87170;-86
2023/09/27 05:29:13;;;;;;;2.17;1.70;;;23.00;59.30;;;;;;6133908;23;86104;-85
2023/09/27 05:31:41;;;;;;;2.42;2.08;;;22.90;59.30;;;;;;6133516;23;85804;-84
2023/09/27 05:34:07;;;;;;;2.30;1.70;;;22.90;59.40;;;;;;6131687;23;86318;-85
2023/09/27 05:36:33;;;;;;;2.15;1.95;;;22.90;59.40;;;;;;6133460;23;86383;-85
2023/09/27 05:39:08;;;;;;;1.85;1.70;;;22.90;59.40;;;;;;6134556;23;85479;-84
2023/09/27 05:41:33;;;;;;;2.45;1.88;;;22.90;59.40;;;;;;6107378;23;85660;-83
2023/09/27 05:44:01;;;;;;;4.40;1.80;;;22.90;59.30;;;;;;6133463;23;86550;-85
2023/09/27 05:46:28;;;;;;;2.78;2.03;;;22.90;59.20;;;;;;6107579;23;87977;-85
2023/09/27 05:48:54;;;;;;;2.17;1.92;;;22.90;59.30;;;;;;6109061;23;86143;-85
2023/09/27 05:51:29;;;;;;;2.47;1.92;;;22.90;59.20;;;;;;6132030;23;85875;-84
2023/09/27 05:53:54;;;;;;;2.05;1.80;;;22.90;59.40;;;;;;6134385;23;87209;-83
2023/09/27 05:56:20;;;;;;;2.17;1.80;;;22.90;59.30;;;;;;6133771;23;85909;-84
2023/09/27 05:58:45;;;;;;;1.80;1.70;;;22.90;59.40;;;;;;6131641;23;85618;-83
2023/09/27 06:01:19;;;;;;;2.17;1.98;;;22.90;59.10;;;;;;6135029;23;85790;-85
2023/09/27 06:03:45;;;;;;;2.42;1.60;;;22.90;59.00;;;;;;6133331;23;91343;-89
2023/09/27 06:06:12;;;;;;;4.93;2.03;;;22.90;58.30;;;;;;6094498;23;86825;-84
2023/09/27 06:08:38;;;;;;;3.42;1.90;;;22.90;57.60;;;;;;6108187;23;85905;-84
2023/09/27 06:11:07;;;;;;;6.63;2.35;;;22.90;57.60;;;;;;6136649;23;85996;-83
2023/09/27 06:13:35;;;;;;;8.55;2.60;;;22.90;56.90;;;;;;6105344;23;90243;-92
2023/09/27 06:16:01;;;;;;;12.75;3.35;;;22.90;56.60;;;;;;6135060;23;86827;-86
2023/09/27 06:18:27;;;;;;;13.35;4.32;;;22.90;56.80;;;;;;6133694;23;85579;-87
2023/09/27 06:20:53;;;;;;;11.77;4.47;;;22.90;57.40;;;;;;6109468;23;85876;-87
2023/09/27 06:23:23;;;;;;;13.93;4.55;;;22.90;57.30;;;;;;6134281;23;88974;-87
2023/09/27 06:25:48;;;;;;;13.70;4.03;;;22.90;57.60;;;;;;6134452;23;88933;-85
2023/09/27 06:28:14;;;;;;;13.93;3.80;;;22.90;57.80;;;;;;6132505;23;85756;-86
2023/09/27 06:30:40;;;;;;;11.35;3.95;;;22.90;58.20;;;;;;6105581;23;86130;-84
2023/09/27 06:33:09;;;;;;;12.70;3.63;;;22.90;58.50;;;;;;6131233;23;87852;-87
2023/09/27 06:35:42;;;;;;;13.40;4.43;;;22.80;57.60;;;;;;6125420;23;86732;-83
2023/09/27 06:38:07;;;;;;;11.15;3.78;;;22.90;57.00;;;;;;6100481;23;86334;-82
2023/09/27 06:40:35;;;;;;;21.27;4.18;;;22.80;58.40;;;;;;6125074;23;86210;-86
2023/09/27 06:43:05;;;;;;;8.65;3.83;;;22.80;58.80;;;;;;6130370;23;86692;-87
2023/09/27 06:45:30;;;;;;;12.18;3.33;;;22.80;58.90;;;;;;6127472;23;87339;-86
2023/09/27 06:47:56;;;;;;;10.25;3.78;;;22.90;59.00;;;;;;6127075;23;86156;-85
2023/09/27 06:50:22;;;;;;;10.43;3.50;;;22.80;59.10;;;;;;6127321;23;85691;-85
2023/09/27 06:52:48;;;;;;;9.00;3.60;;;22.80;59.10;;;;;;6124074;23;88700;-85
2023/09/27 06:55:16;;;;;;;7.20;3.78;;;22.80;59.00;;;;;;6124018;23;88432;-88
2023/09/27 06:57:46;;;;;;;7.53;3.58;;;22.80;59.00;;;;;;6101620;23;89532;-88
2023/09/27 07:00:18;;;;;;;7.70;4.07;;;22.90;59.10;;;;;;6099605;23;87391;-83
2023/09/27 07:02:48;;;;;;;9.32;4.00;;;22.90;59.30;;;;;;6126112;23;87207;-84
2023/09/27 07:05:20;;;;;;;9.30;3.97;;;22.90;59.20;;;;;;6097785;23;90322;-86
2023/09/27 07:07:47;;;;;;;9.70;3.47;;;22.90;59.30;;;;;;6097126;23;91228;-83
2023/09/27 07:10:13;;;;;;;9.05;3.70;;;22.90;59.30;;;;;;6097997;23;87418;-86
2023/09/27 07:12:38;;;;;;;8.88;2.95;;;22.90;59.10;;;;;;6098929;23;88986;-86
2023/09/27 07:15:12;;;;;;;11.13;3.80;;;22.90;59.90;;;;;;6128468;23;88493;-88
2023/09/27 07:17:38;;;;;;;7.95;3.10;;;22.90;59.40;;;;;;6132623;23;88307;-90
2023/09/27 07:22:54;;;;;;;6.47;3.10;;;22.90;59.20;;;;;;6137738;23;86650;-92
2023/09/27 07:25:28;;;;;;;6.90;3.33;;;22.90;59.30;;;;;;6131092;23;88841;-87
2023/09/27 07:28:11;;;;;;;13.63;3.63;;;22.90;59.40;;;;;;6115067;23;88703;-87
2023/09/27 07:30:37;;;;;;;9.75;3.83;;;22.90;59.30;;;;;;6114227;23;87710;-88
2023/09/27 07:33:26;;;;;;;14.65;4.28;;;22.90;59.40;;;;;;6114900;23;88992;-87
2023/09/27 07:42:51;;;;;;;21.30;6.07;;;22.90;59.20;;;;;;6142107;23;86612;-86
2023/09/27 07:48:43;;;;;;;14.57;5.07;;;23.00;59.20;;;;;;6141960;23;87009;-86
2023/09/27 07:51:13;;;;;;;19.40;5.68;;;23.00;59.10;;;;;;6102771;23;90445;-87
2023/09/27 07:53:39;;;;;;;21.10;5.93;;;23.00;59.00;;;;;;6102009;23;87183;-92
2023/09/27 07:56:36;;;;;;;16.60;4.78;;;23.00;59.10;;;;;;6130328;23;87310;-86
2023/09/27 07:59:03;;;;;;;23.23;6.90;;;23.00;59.20;;;;;;6128520;23;89033;-85
2023/09/27 08:01:29;;;;;;;21.83;6.20;;;23.10;59.10;;;;;;6102039;23;91909;-89
2023/09/27 08:04:05;;;;;;;23.50;6.25;;;23.10;58.80;;;;;;6102112;23;87136;-86
2023/09/27 08:06:34;;;;;;;21.02;6.82;;;23.10;58.90;;;;;;6130870;23;87393;-90
2023/09/27 08:09:01;;;;;;;20.08;5.43;;;23.10;58.80;;;;;;6128762;23;87738;-91
2023/09/27 08:11:29;;;;;;;18.17;5.97;;;23.10;59.00;;;;;;6100275;23;88977;-88
2023/09/27 08:13:54;;;;;;;20.67;6.47;;;23.10;59.00;;;;;;6126072;23;87246;-89
2023/09/27 08:16:20;;;;;;;18.45;6.25;;;23.10;59.20;;;;;;6127159;23;88845;-86
2023/09/27 08:18:46;;;;;;;21.20;5.80;;;23.10;59.20;;;;;;6103740;23;90268;-93
2023/09/27 08:21:12;;;;;;;15.52;5.85;;;23.20;59.10;;;;;;6126407;23;89268;-90
2023/09/27 08:23:38;;;;;;;16.70;5.68;;;23.20;59.20;;;;;;6100221;23;87839;-86
2023/09/27 08:26:03;;;;;;;16.88;5.35;;;23.20;59.00;;;;;;6127067;23;87457;-90
2023/09/27 08:28:32;;;;;;;19.52;6.43;;;23.20;59.90;;;;;;6124258;23;91027;-87
2023/09/27 08:30:58;;;;;;;15.17;5.33;;;23.20;59.40;;;;;;6128649;23;87891;-87
2023/09/27 08:33:24;;;;;;;16.67;5.82;;;23.20;59.20;;;;;;6129238;23;87281;-88
2023/09/27 08:35:52;;;;;;;11.38;5.13;;;23.20;59.20;;;;;;6099838;23;87391;-88
2023/09/27 08:38:17;;;;;;;16.98;5.40;;;23.20;59.20;;;;;;6128040;23;88408;-85
2023/09/27 08:40:43;;;;;;;18.35;5.82;;;23.20;59.10;;;;;;6128183;23;90476;-90
2023/09/27 08:43:10;;;;;;;15.82;5.40;;;23.20;59.10;;;;;;6128741;23;86986;-89
2023/09/27 08:45:39;;;;;;;14.85;5.43;;;23.20;58.90;;;;;;6100158;23;88708;-86
2023/09/27 08:48:08;;;;;;;19.98;5.13;;;23.20;58.90;;;;;;6124760;23;92417;-86
2023/09/27 08:50:35;;;;;;;16.45;5.13;;;23.20;59.10;;;;;;6095920;23;90953;-85
2023/09/27 08:53:01;;;;;;;15.98;4.78;;;23.20;59.20;;;;;;6126911;23;87573;-90
2023/09/27 08:55:27;;;;;;;13.10;5.22;;;23.20;59.10;;;;;;6098859;23;89872;-89
2023/09/27 08:57:56;;;;;;;12.43;5.18;;;23.20;59.40;;;;;;6128660;23;88642;-85
2023/09/27 09:00:26;;;;;;;14.48;5.93;;;23.20;59.30;;;;;;6126152;23;88487;-89
2023/09/27 09:02:57;;;;;;;12.52;5.18;;;23.20;59.20;;;;;;6124856;23;89123;-82
2023/09/27 09:05:26;;;;;;;15.15;5.18;;;23.20;59.30;;;;;;6124968;23;87081;-90
2023/09/27 09:07:52;;;;;;;13.52;4.85;;;23.20;59.40;;;;;;6092629;23;90300;-86
2023/09/27 09:10:17;;;;;;;12.85;5.30;;;23.20;59.50;;;;;;6120442;23;89884;-84
2023/09/27 09:12:45;;;;;;;17.20;5.88;;;23.30;59.50;;;;;;6093210;23;88750;-83
2023/09/27 09:15:26;;;;;;;14.65;5.32;;;23.30;59.40;;;;;;6100523;23;88954;-87
2023/09/27 09:17:53;;;;;;;13.57;4.70;;;23.30;59.20;;;;;;6100760;23;89592;-91
2023/09/27 09:20:26;;;;;;;12.68;4.43;;;23.30;58.90;;;;;;6129834;23;87575;-84
2023/09/27 09:22:54;;;;;;;17.08;5.68;;;23.30;59.10;;;;;;6130455;23;87449;-85
2023/09/27 09:25:23;;;;;;;16.63;4.97;;;23.30;59.50;;;;;;6128190;23;87239;-87
2023/09/27 09:28:09;;;;;;;13.85;4.97;;;23.40;59.40;;;;;;6104360;23;90432;-85
2023/09/27 09:30:41;;;;;;;13.60;4.85;;;23.30;59.30;;;;;;6104204;23;88265;-85
2023/09/27 09:33:16;;;;;;;12.77;4.50;;;23.40;59.50;;;;;;6128576;23;93622;-86
2023/09/27 09:35:42;;;;;;;16.70;5.30;;;23.40;59.60;;;;;;6104669;23;89297;-84
2023/09/27 09:38:08;;;;;;;12.52;4.30;;;23.40;59.90;;;;;;6129749;23;89987;-85
2023/09/27 09:40:50;;;;;;;14.95;4.50;;;23.30;59.40;;;;;;6104376;23;90384;-85
2023/09/27 09:43:31;;;;;;;12.52;4.55;;;23.40;59.50;;;;;;6128750;23;87275;-84
2023/09/27 09:45:57;;;;;;;13.13;4.95;;;23.40;60.40;;;;;;6105804;23;87749;-89
2023/09/27 09:48:23;;;;;;;12.23;4.55;;;23.40;59.60;;;;;;6128923;23;89719;-86
2023/09/27 09:50:49;;;;;;;17.65;4.93;;;23.40;59.60;;;;;;6104451;23;89952;-86
2023/09/27 09:53:16;;;;;;;14.20;5.68;;;23.40;60.40;;;;;;6130737;23;87354;-86
2023/09/27 09:55:46;;;;;;;8.93;3.72;;;23.40;59.70;;;;;;6130624;23;87429;-86
2023/09/27 09:58:30;;;;;;;11.40;4.60;;;23.40;59.80;;;;;;6105414;23;90440;-86
2023/09/27 10:01:00;;;;;;;8.25;4.13;;;23.40;59.60;;;;;;6129349;23;93559;-90
2023/09/27 10:03:33;;;;;;;9.57;4.82;;;23.40;59.60;;;;;;6130299;23;88141;-85
2023/09/27 10:06:04;;;;;;;15.48;4.45;;;23.40;59.60;;;;;;6130469;23;87085;-86
2023/09/27 10:08:34;;;;;;;11.63;4.60;;;23.40;59.60;;;;;;6104234;23;88812;-84
2023/09/27 10:11:04;;;;;;;13.60;4.78;;;23.40;59.70;;;;;;6103597;23;89164;-85
2023/09/27 10:13:39;;;;;;;14.90;4.43;;;23.40;59.80;;;;;;6129973;23;87106;-84
2023/09/27 10:16:08;;;;;;;11.43;4.60;;;23.40;59.70;;;;;;6104255;23;87418;-89
2023/09/27 10:18:40;;;;;;;13.27;4.07;;;23.40;60.00;;;;;;6103367;23;88482;-88
2023/09/27 10:21:12;;;;;;;9.55;4.75;;;23.40;59.80;;;;;;6104613;23;88402;-85
2023/09/27 10:23:47;;;;;;;8.32;4.10;;;23.40;59.80;;;;;;6130613;23;87517;-86
2023/09/27 10:26:19;;;;;;;11.00;4.10;;;23.40;59.70;;;;;;6117766;23;87244;-85
2023/09/27 10:29:21;;;;;;;12.05;4.68;;;23.40;59.80;;;;;;6129741;23;89803;-84
2023/09/27 10:32:01;;;;;;;12.98;4.57;;;23.40;59.70;;;;;;6131283;23;89367;-85
2023/09/27 10:34:39;;;;;;;15.48;4.43;;;23.30;59.70;;;;;;6130193;23;86879;-91
2023/09/27 10:37:06;;;;;;;12.07;4.00;;;23.40;59.50;;;;;;6107047;23;88628;-92
2023/09/27 10:40:19;;;;;;;12.32;4.38;;;23.40;59.40;;;;;;6105216;23;90105;-93
2023/09/27 10:46:14;;;;;;;10.50;4.85;;;23.40;59.80;;;;;;6134577;23;86846;-93
2023/09/27 11:19:07;;;;;;;6.45;3.10;;;23.60;60.20;;;;;;6130188;22;91507;-90
2023/09/27 11:21:34;;;;;;;9.60;4.00;;;23.70;59.90;;;;;;6128258;23;86871;-90
2023/09/27 11:24:53;;;;;;;13.15;3.72;;;23.70;59.80;;;;;;6123972;23;88496;-89
2023/09/27 11:27:20;;;;;;;8.27;3.53;;;23.70;59.80;;;;;;6126589;23;89888;-91
2023/09/27 11:30:03;;;;;;;7.18;3.50;;;23.80;59.70;;;;;;6105429;23;90767;-89
2023/09/27 11:33:19;;;;;;;9.82;2.70;;;23.80;59.50;;;;;;6133116;23;86780;-88
2023/09/27 11:35:50;;;;;;;18.30;4.55;;;23.80;59.30;;;;;;6109102;23;87561;-88
2023/09/27 11:38:15;;;;;;;7.00;3.75;;;23.90;59.40;;;;;;6104867;23;88618;-90
2023/09/27 11:40:43;;;;;;;7.25;3.50;;;23.90;59.60;;;;;;6127051;23;87624;-90
2023/09/27 11:43:12;;;;;;;7.30;2.97;;;23.90;59.70;;;;;;6119965;23;87308;-89
2023/09/27 11:45:46;;;;;;;9.18;2.90;;;23.90;59.30;;;;;;6112924;23;93513;-89
2023/09/27 11:48:12;;;;;;;7.65;3.20;;;24.00;59.50;;;;;;6116915;23;88595;-91
2023/09/27 11:50:38;;;;;;;8.80;3.47;;;24.00;59.60;;;;;;6123003;23;88250;-91
2023/09/27 11:53:04;;;;;;;13.95;3.75;;;24.00;59.50;;;;;;6125998;23;88067;-91
2023/09/27 11:55:30;;;;;;;4.90;2.80;;;24.00;59.10;;;;;;6098057;23;87692;-90
2023/09/27 11:58:03;;;;;;;6.65;3.17;;;24.10;59.00;;;;;;6100368;23;89932;-91
2023/09/27 12:00:29;;;;;;;5.13;2.58;;;24.10;58.80;;;;;;6111103;23;89255;-90
2023/09/27 12:02:54;;;;;;;10.88;3.47;;;24.10;58.80;;;;;;6103447;23;86776;-90
2023/09/27 12:05:20;;;;;;;8.27;3.28;;;24.10;58.70;;;;;;6097788;23;89843;-94
2023/09/27 12:07:47;;;;;;;5.22;2.90;;;24.20;58.80;;;;;;6108005;23;89921;-92
2023/09/27 12:10:14;;;;;;;7.70;3.20;;;24.20;59.00;;;;;;6120444;23;87276;-90
2023/09/27 12:12:40;;;;;;;7.80;2.53;;;24.20;58.80;;;;;;6123516;23;87608;-89
2023/09/27 12:15:07;;;;;;;6.22;3.30;;;24.20;58.50;;;;;;6076692;23;87521;-90
2023/09/27 12:17:32;;;;;;;4.10;2.53;;;24.20;58.20;;;;;;6084503;23;89866;-89
2023/09/27 12:19:58;;;;;;;5.75;2.55;;;24.30;57.90;;;;;;6123423;23;88806;-91
2023/09/27 12:22:28;;;;;;;6.10;2.47;;;24.30;58.40;;;;;;6117559;23;87430;-90
2023/09/27 12:24:53;;;;;;;7.40;2.70;;;24.30;58.30;;;;;;6092106;23;88763;-88
2023/09/27 12:27:19;;;;;;;8.98;2.78;;;24.30;58.50;;;;;;6119832;23;90274;-89
2023/09/27 12:29:49;;;;;;;10.60;3.00;;;24.30;58.80;;;;;;6113313;23;89299;-89
2023/09/27 12:32:15;;;;;;;4.53;2.83;;;24.30;60.00;;;;;;6115538;23;87225;-89
2023/09/27 12:34:41;;;;;;;8.77;3.03;;;24.40;59.30;;;;;;6120605;23;87069;-88
2023/09/27 12:37:06;;;;;;;7.10;2.47;;;24.40;59.00;;;;;;6089509;23;89415;-88
2023/09/27 12:39:32;;;;;;;6.82;2.88;;;24.40;59.70;;;;;;6119955;23;89453;-89
2023/09/27 12:42:00;;;;;;;8.40;2.65;;;24.40;59.70;;;;;;6090807;23;88352;-87
2023/09/27 12:44:26;;;;;;;8.65;2.90;;;24.40;60.30;;;;;;6117079;23;87445;-89
2023/09/27 12:47:00;;;;;;;5.57;2.60;;;24.40;59.70;;;;;;6092984;23;91156;-88
2023/09/27 12:49:28;;;;;;;5.35;2.47;;;24.50;59.40;;;;;;6117311;23;90567;-89
2023/09/27 12:51:53;;;;;;;4.82;2.80;;;24.50;59.50;;;;;;6112908;23;87535;-89
2023/09/27 12:54:21;;;;;;;11.38;2.42;;;24.50;59.40;;;;;;6112740;23;89233;-88
2023/09/27 12:56:47;;;;;;;10.75;2.65;;;24.50;59.70;;;;;;6115269;23;89394;-90
2023/09/27 12:59:12;;;;;;;6.32;2.47;;;24.50;59.60;;;;;;6116398;23;91565;-90
2023/09/27 13:01:38;;;;;;;4.63;2.88;;;24.60;59.80;;;;;;6117352;23;87506;-89
2023/09/27 13:04:15;;;;;;;9.70;3.63;;;24.60;59.90;;;;;;6120417;23;86959;-91
2023/09/27 13:06:43;;;;;;;13.38;4.18;;;24.60;59.70;;;;;;6092290;23;95029;-90
2023/09/27 13:09:09;;;;;;;13.20;4.50;;;24.60;59.80;;;;;;6120776;23;88376;-92
2023/09/27 13:11:35;;;;;;;18.00;5.13;;;24.60;59.80;;;;;;6119399;23;87209;-89
2023/09/27 13:14:01;;;;;;;14.35;4.68;;;24.60;59.80;;;;;;6121775;23;87643;-87
2023/09/27 13:16:28;;;;;;;9.95;3.75;;;24.70;59.30;;;;;;6090082;23;91552;-89
2023/09/27 13:18:55;;;;;;;8.50;3.13;;;24.70;59.20;;;;;;6118921;23;87447;-89
2023/09/27 13:21:21;;;;;;;11.32;3.53;;;24.70;58.80;;;;;;6090170;23;87184;-88
2023/09/27 13:23:49;;;;;;;8.20;3.95;;;24.70;58.40;;;;;;6117206;23;87392;-89
2023/09/27 13:26:14;;;;;;;10.60;3.70;;;24.70;58.70;;;;;;6091787;23;89484;-88
2023/09/27 13:28:40;;;;;;;6.88;3.10;;;24.70;58.30;;;;;;6094622;23;88738;-90
2023/09/27 13:31:08;;;;;;;6.63;3.20;;;24.80;58.30;;;;;;6097055;23;88522;-89
2023/09/27 13:33:34;;;;;;;6.82;2.90;;;24.80;58.10;;;;;;6117887;23;88097;-90
2023/09/27 13:36:00;;;;;;;9.07;3.40;;;24.80;58.00;;;;;;6119645;23;88280;-92